Time;durP1;ratioP1;P1;durP2;ratioP2;P2;SDS_P1;SDS_P2;PMS_P1;PMS_P2;Temp;Humidity;BMP_temperature;BMP_pressure;BME280_temperature;BME280_humidity;BME280_pressure;Samples;Min_cycle;Max_cycle;Signal;HPM_P1;HPM_P2
2023/01/09 00:01:45;;;;;;;30.50;18.25;;;6.50;99.90;;;4.88;100.00;99531.13;5008847;28;20033;-82
2023/01/09 00:04:12;;;;;;;35.45;18.13;;;6.50;99.90;;;4.87;100.00;99527.66;5003534;28;20456;-82
2023/01/09 00:06:49;;;;;;;;;;;;;;;;;;;;;
2023/01/09 00:09:15;;;;;;;34.85;19.05;;;6.40;99.90;;;4.89;100.00;99532.81;5006384;28;20032;-82
2023/01/09 00:11:40;;;;;;;33.80;18.95;;;6.40;99.90;;;4.92;100.00;99540.50;5022545;28;20029;-81
2023/01/09 00:14:06;;;;;;;34.45;19.02;;;6.40;99.90;;;4.93;100.00;99537.84;5008792;28;20026;-82
2023/01/09 00:16:40;;;;;;;40.47;20.58;;;6.50;99.90;;;4.96;100.00;99541.22;5007077;28;20095;-80
2023/01/09 00:19:05;;;;;;;34.30;20.58;;;6.50;99.90;;;5.01;100.00;99531.44;5007266;28;20034;-82
2023/01/09 00:21:31;;;;;;;54.53;31.15;;;6.50;99.90;;;5.04;100.00;99531.31;5021974;28;20038;-81
2023/01/09 00:23:57;;;;;;;42.67;23.00;;;6.50;99.90;;;4.99;100.00;99522.84;5006519;28;20539;-82
2023/01/09 00:26:25;;;;;;;36.90;18.65;;;6.50;99.90;;;4.97;100.00;99522.91;5024912;28;20025;-81
2023/01/09 00:28:53;;;;;;;36.55;20.63;;;6.50;99.90;;;4.93;100.00;99514.38;5006460;28;20440;-81
2023/01/09 00:31:22;;;;;;;41.75;23.52;;;6.40;99.90;;;4.83;100.00;99517.44;5005486;28;20104;-82
2023/01/09 00:34:06;;;;;;;43.20;22.30;;;6.30;99.90;;;4.78;100.00;99511.56;5005529;28;20116;-82
2023/01/09 00:36:37;;;;;;;39.28;21.23;;;6.30;99.90;;;4.73;100.00;99509.16;5025260;28;20018;-81
2023/01/09 00:39:03;;;;;;;44.72;21.88;;;6.30;99.90;;;4.71;100.00;99505.75;5005516;28;20041;-81
2023/01/09 00:41:43;;;;;;;44.28;22.05;;;6.30;99.90;;;4.69;100.00;99507.59;5024712;28;20061;-80
2023/01/09 00:44:28;;;;;;;47.33;22.27;;;6.20;99.90;;;4.72;100.00;99507.44;5008042;28;20020;-82
2023/01/09 00:47:09;;;;;;;40.55;22.52;;;6.20;99.90;;;4.73;100.00;99509.16;4992656;28;20063;-82
2023/01/09 00:49:41;;;;;;;39.78;22.35;;;6.30;99.90;;;4.75;100.00;99498.66;5023907;28;20025;-81
2023/01/09 00:52:10;;;;;;;39.35;23.00;;;6.30;99.90;;;4.81;100.00;99498.38;4990161;28;20037;-81
2023/01/09 00:54:38;;;;;;;42.95;23.45;;;6.30;99.90;;;4.84;100.00;99495.66;5005242;28;20045;-80
2023/01/09 00:57:14;;;;;;;38.40;22.98;;;6.40;99.90;;;4.85;100.00;99477.31;5022433;28;20045;-81
2023/01/09 00:59:41;;;;;;;42.40;24.15;;;6.40;99.90;;;4.81;100.00;99482.75;5023792;28;20044;-80
2023/01/09 01:02:13;;;;;;;45.25;23.95;;;6.30;99.90;;;4.76;100.00;99480.34;5006389;28;20034;-81
2023/01/09 01:07:40;;;;;;;47.92;24.38;;;6.20;99.90;;;4.62;100.00;99480.94;5021458;28;20064;-80
2023/01/09 01:10:18;;;;;;;36.70;22.67;;;6.20;99.90;;;4.59;100.00;99483.66;5005747;28;20033;-81
2023/01/09 01:12:45;;;;;;;47.97;23.38;;;6.20;99.90;;;4.54;100.00;99469.13;4988404;28;20036;-81
2023/01/09 01:15:19;;;;;;;46.40;23.70;;;6.10;99.90;;;4.49;100.00;99471.91;5024288;28;20493;-81
2023/01/09 01:17:48;;;;;;;51.90;25.00;;;6.10;99.90;;;4.42;100.00;99468.69;5021818;28;20041;-81
2023/01/09 01:20:23;;;;;;;51.05;25.23;;;6.00;99.90;;;4.44;100.00;99463.44;5003064;28;20025;-81
2023/01/09 01:22:49;;;;;;;49.30;25.20;;;5.90;99.90;;;4.32;100.00;99457.81;5021153;28;20108;-81
2023/01/09 01:25:16;;;;;;;51.13;25.60;;;5.90;99.90;;;4.31;100.00;99456.13;5007927;28;20081;-82
2023/01/09 01:27:45;;;;;;;52.72;25.13;;;5.90;99.90;;;4.26;100.00;99452.84;4989674;28;20024;-79
2023/01/09 01:30:16;;;;;;;45.80;25.17;;;5.80;99.90;;;4.18;100.00;99457.53;4989696;28;20151;-82
2023/01/09 01:32:42;;;;;;;56.15;25.92;;;5.80;99.90;;;4.13;100.00;99461.25;4987761;28;20140;-81
2023/01/09 01:35:09;;;;;;;54.70;26.10;;;5.70;99.90;;;4.10;100.00;99456.97;5024193;28;20410;-81
2023/01/09 01:37:44;;;;;;;54.67;26.45;;;5.70;99.90;;;4.08;100.00;99453.59;5023315;28;20029;-80
2023/01/09 01:40:11;;;;;;;65.07;29.08;;;5.60;99.90;;;4.01;100.00;99447.78;5022290;28;20458;-81
2023/01/09 01:42:49;;;;;;;68.43;27.65;;;5.60;99.90;;;3.93;100.00;99459.41;5021076;28;20041;-81
2023/01/09 01:45:31;;;;;;;59.22;26.83;;;5.50;99.90;;;3.88;100.00;99459.59;5019606;28;20030;-82
2023/01/09 01:48:22;;;;;;;58.50;26.92;;;5.50;99.90;;;3.84;100.00;99456.25;5007951;28;20022;-81
2023/01/09 01:50:54;;;;;;;58.33;28.45;;;5.50;99.90;;;3.88;100.00;99451.78;5007439;28;20033;-81
2023/01/09 01:53:32;;;;;;;53.95;26.63;;;5.50;99.90;;;3.91;100.00;99456.91;5022784;28;20079;-81
2023/01/09 01:56:09;;;;;;;58.65;27.85;;;5.50;99.90;;;3.93;100.00;99462.03;4988028;28;20025;-82
2023/01/09 01:59:00;;;;;;;49.63;26.85;;;5.50;99.90;;;3.97;100.00;99471.41;5022975;28;20494;-81
2023/01/09 02:01:27;;;;;;;60.00;28.00;;;5.60;99.90;;;4.00;100.00;99476.50;5006845;28;20042;-81
2023/01/09 02:03:56;;;;;;;56.65;27.92;;;5.60;99.90;;;4.05;100.00;99465.00;5005919;28;20030;-80
2023/01/09 02:06:22;;;;;;;62.10;29.10;;;5.60;99.90;;;4.14;100.00;99450.75;5004232;28;20048;-79
2023/01/09 02:08:53;;;;;;;57.88;26.73;;;5.70;99.90;;;4.08;100.00;99444.03;5022676;28;20370;-81
2023/01/09 02:11:20;;;;;;;69.22;26.70;;;5.60;99.90;;;3.99;100.00;99440.94;5022751;28;20022;-82
2023/01/09 02:13:47;;;;;;;89.50;31.58;;;5.60;99.90;;;3.89;100.00;99435.28;5011701;28;20026;-82
2023/01/09 02:16:46;;;;;;;88.22;28.48;;;5.50;99.90;;;3.72;100.00;99422.91;5009558;28;20029;-81
2023/01/09 02:19:51;;;;;;;53.95;26.70;;;5.40;99.90;;;3.72;100.00;99424.69;5023238;28;20040;-82
2023/01/09 02:22:46;;;;;;;74.22;25.58;;;5.30;99.90;;;3.60;100.00;99418.19;5009123;28;20038;-82
2023/01/09 02:25:28;;;;;;;59.90;25.05;;;5.30;99.90;;;3.64;100.00;99424.97;5028792;28;20766;-81
2023/01/09 02:28:30;;;;;;;66.45;26.95;;;5.30;99.90;;;3.61;100.00;99425.09;5006470;28;20080;-80
2023/01/09 02:31:52;;;;;;;70.35;27.70;;;5.20;99.90;;;3.59;100.00;99413.88;5024835;28;20044;-81
2023/01/09 02:34:49;;;;;;;133.25;32.42;;;5.10;99.90;;;3.48;100.00;99417.75;5009674;28;20140;-81
2023/01/09 02:37:44;;;;;;;66.53;28.00;;;4.80;99.90;;;3.52;100.00;99417.63;5027199;28;20029;-80
2023/01/09 02:40:54;;;;;;;73.50;27.50;;;5.10;99.90;;;3.48;100.00;99422.94;5023533;28;20037;-81
2023/01/09 02:43:20;;;;;;;76.90;30.05;;;5.10;99.90;;;3.46;100.00;99419.56;5024906;28;20026;-82
2023/01/09 02:45:46;;;;;;;102.57;34.85;;;5.10;99.90;;;3.44;100.00;99418.78;5024427;28;20521;-82
2023/01/09 02:48:12;;;;;;;122.43;34.80;;;5.00;99.90;;;3.39;100.00;99423.31;5025144;28;20045;-80
2023/01/09 02:51:05;;;;;;;76.15;31.13;;;5.00;99.90;;;3.37;100.00;99430.31;5026948;28;20037;-82
2023/01/09 02:54:03;;;;;;;76.22;28.50;;;5.00;99.90;;;3.32;100.00;99428.78;5025474;28;20037;-81
2023/01/09 02:56:54;;;;;;;162.73;36.35;;;4.90;99.90;;;3.19;100.00;99418.00;5019752;28;20054;-80
2023/01/09 02:59:40;;;;;;;157.65;35.80;;;4.80;99.90;;;3.12;100.00;99419.97;5025782;28;20492;-81
2023/01/09 03:02:36;;;;;;;189.13;35.15;;;4.80;99.90;;;3.02;100.00;99405.59;5009937;28;20466;-81
2023/01/09 03:05:27;;;;;;;430.70;46.70;;;4.70;99.90;;;2.98;100.00;99410.09;5024126;28;20513;-81
2023/01/09 03:08:07;;;;;;;413.52;40.78;;;4.60;99.90;;;2.87;100.00;99404.41;5022564;28;20057;-81
2023/01/09 03:11:03;;;;;;;137.57;36.03;;;4.50;99.90;;;2.76;100.00;99394.41;5026814;28;20029;-81
2023/01/09 03:13:44;;;;;;;170.77;35.00;;;4.40;99.90;;;2.69;100.00;99398.13;5024462;28;20512;-80
2023/01/09 03:16:23;;;;;;;403.98;42.50;;;4.40;99.90;;;2.59;100.00;99400.22;4990849;28;20038;-81
2023/01/09 03:18:52;;;;;;;986.65;66.07;;;4.30;99.90;;;2.55;100.00;99413.34;4991059;28;20025;-81
2023/01/09 03:21:25;;;;;;;469.15;45.72;;;4.30;99.90;;;2.52;100.00;99411.72;5010032;28;20538;-81
2023/01/09 03:23:57;;;;;;;129.52;31.35;;;4.20;99.90;;;2.52;100.00;99409.09;5026483;28;20037;-81
2023/01/09 03:26:31;;;;;;;271.38;41.30;;;4.20;99.90;;;2.53;100.00;99403.03;5008779;28;20497;-80
2023/01/09 03:28:58;;;;;;;190.65;37.97;;;4.20;99.90;;;2.50;100.00;99410.06;5024982;28;20116;-81
2023/01/09 03:31:24;;;;;;;221.80;42.22;;;4.20;99.90;;;2.43;100.00;99414.63;5025055;28;20022;-80
2023/01/09 03:33:50;;;;;;;264.10;43.10;;;4.10;99.90;;;2.37;100.00;99420.88;5007737;28;20038;-82
2023/01/09 03:36:22;;;;;;;287.80;40.90;;;4.10;99.90;;;2.37;100.00;99417.44;5010237;28;21193;-80
2023/01/09 03:38:48;;;;;;;141.82;28.38;;;4.00;99.90;;;2.29;100.00;99419.44;5006833;28;20026;-81
2023/01/09 03:41:14;;;;;;;322.83;43.28;;;4.00;99.90;;;2.35;100.00;99417.47;5024110;28;20021;-81
2023/01/09 03:43:40;;;;;;;812.00;62.25;;;4.00;99.90;;;2.24;100.00;99407.44;5007123;28;20037;-82
2023/01/09 03:46:06;;;;;;;811.95;53.47;;;3.90;99.90;;;2.19;100.00;99406.75;5025610;28;20571;-82
2023/01/09 03:48:36;;;;;;;1064.05;68.85;;;3.90;99.90;;;2.15;100.00;99407.75;5024687;28;20042;-81
2023/01/09 03:51:02;;;;;;;1149.93;67.85;;;3.80;99.90;;;2.05;100.00;99402.03;5006978;28;20042;-80
2023/01/09 03:53:28;;;;;;;641.80;50.97;;;3.70;99.90;;;1.94;100.00;99391.13;5024568;28;20056;-81
2023/01/09 03:55:56;;;;;;;366.35;46.42;;;3.70;99.90;;;1.93;100.00;99392.03;5005960;28;20110;-81
2023/01/09 03:58:31;;;;;;;246.38;42.53;;;3.60;99.90;;;1.90;100.00;99386.09;5010550;28;20026;-80
2023/01/09 04:01:11;;;;;;;243.18;42.58;;;3.60;99.90;;;1.95;100.00;99384.22;4992283;28;20062;-82
2023/01/09 04:03:37;;;;;;;472.40;49.85;;;3.60;99.90;;;1.94;100.00;99390.28;5024937;28;20029;-81
2023/01/09 04:06:03;;;;;;;165.48;39.97;;;3.60;99.90;;;2.00;100.00;99390.09;5022109;28;20490;-81
2023/01/09 04:08:29;;;;;;;251.38;45.10;;;3.70;99.90;;;2.00;100.00;99387.50;5033121;23;20117;-86
2023/01/09 04:11:00;;;;;;;360.25;47.78;;;3.70;99.90;;;1.99;100.00;99385.81;5022172;28;20116;-86
2023/01/09 04:13:26;;;;;;;401.48;51.10;;;3.70;99.90;;;2.05;100.00;99385.59;5022365;28;20576;-86
2023/01/09 04:15:52;;;;;;;221.65;41.78;;;3.70;99.90;;;2.04;100.00;99392.53;4990826;28;20045;-86
2023/01/09 04:18:18;;;;;;;692.10;56.40;;;3.70;99.90;;;2.00;100.00;99395.28;5005935;28;20034;-86
2023/01/09 04:20:52;;;;;;;970.10;67.05;;;3.70;99.90;;;1.94;100.00;99391.13;5005895;28;20864;-86
2023/01/09 04:23:18;;;;;;;968.55;63.17;;;3.60;99.90;;;1.91;100.00;99398.19;4991657;28;20057;-86
2023/01/09 04:25:44;;;;;;;887.13;67.50;;;3.50;99.90;;;1.83;100.00;99394.06;5007050;28;20549;-86
2023/01/09 04:28:10;;;;;;;438.45;47.72;;;3.50;99.90;;;1.78;100.00;99401.16;5005045;28;20014;-86
2023/01/09 04:30:36;;;;;;;671.17;58.13;;;3.50;99.90;;;1.77;100.00;99396.03;5004455;28;20517;-86
2023/01/09 04:33:01;;;;;;;779.92;64.45;;;3.50;99.90;;;1.78;100.00;99401.16;5001407;28;20033;-84
2023/01/09 04:35:30;;;;;;;306.33;43.53;;;3.40;99.90;;;1.75;100.00;99409.06;4996758;28;20025;-86
2023/01/09 04:37:56;;;;;;;218.45;41.50;;;3.40;99.90;;;1.74;100.00;99399.56;4989954;28;20036;-87
2023/01/09 04:40:22;;;;;;;250.18;43.40;;;3.50;99.90;;;1.83;100.00;99401.03;5007251;28;20493;-85
2023/01/09 04:42:50;;;;;;;173.40;38.22;;;3.50;99.90;;;1.81;100.00;99398.50;4986786;28;20022;-85
2023/01/09 04:45:16;;;;;;;151.27;37.97;;;3.50;99.90;;;1.84;100.00;99394.94;5001873;28;20426;-85
2023/01/09 04:47:50;;;;;;;175.10;39.33;;;3.50;99.90;;;1.83;100.00;99390.63;4987450;28;20117;-85
2023/01/09 04:50:16;;;;;;;198.60;37.50;;;3.50;99.90;;;1.82;100.00;99381.16;5008332;28;20025;-84
2023/01/09 04:52:42;;;;;;;323.20;45.80;;;3.50;99.90;;;1.80;100.00;99375.19;5002264;28;20535;-85
2023/01/09 04:55:17;;;;;;;191.23;40.28;;;3.50;99.90;;;1.82;100.00;99363.84;4991261;28;20108;-84
2023/01/09 04:57:43;;;;;;;303.42;44.88;;;3.50;99.90;;;1.87;100.00;99374.06;4991203;28;20514;-86
2023/01/09 05:00:11;;;;;;;466.63;50.05;;;3.50;99.90;;;1.77;100.00;99364.88;4985869;28;20044;-86
2023/01/09 05:02:46;;;;;;;251.57;42.25;;;3.50;99.90;;;1.78;100.00;99362.25;4985462;28;20030;-85
2023/01/09 05:05:12;;;;;;;142.85;37.38;;;3.40;99.90;;;1.81;100.00;99375.13;4991617;28;20030;-85
2023/01/09 05:07:38;;;;;;;131.68;36.28;;;3.50;99.90;;;1.87;100.00;99371.47;4984552;28;20482;-86
2023/01/09 05:10:05;;;;;;;100.60;26.67;;;3.60;99.90;;;1.88;100.00;99374.91;5005613;28;20475;-85
2023/01/09 05:12:38;;;;;;;138.13;36.80;;;3.60;99.90;;;2.00;100.00;99377.09;5006266;28;20041;-86
2023/01/09 05:15:06;;;;;;;172.50;39.92;;;3.70;99.90;;;2.06;100.00;99374.31;5009119;28;20120;-83
2023/01/09 05:17:32;;;;;;;127.78;36.50;;;3.70;99.90;;;2.07;100.00;99381.19;4985084;28;20116;-85
2023/01/09 05:19:59;;;;;;;142.75;38.83;;;3.80;99.90;;;2.13;100.00;99378.41;4994173;28;20029;-86
2023/01/09 05:22:28;;;;;;;142.98;38.35;;;3.80;99.90;;;2.14;100.00;99372.31;4991633;28;20057;-86
2023/01/09 05:24:57;;;;;;;136.85;36.97;;;3.80;99.90;;;2.13;100.00;99364.56;4989460;28;20127;-85
2023/01/09 05:27:22;;;;;;;128.38;37.78;;;3.80;99.90;;;2.16;100.00;99357.53;5014230;28;20026;-86
2023/01/09 05:30:01;;;;;;;;;;;;;;;;;;;;;
2023/01/09 05:32:27;;;;;;;118.78;33.15;;;3.90;99.90;;;2.23;100.00;99360.78;5012242;28;20036;-86
2023/01/09 05:34:53;;;;;;;122.68;38.42;;;3.90;99.90;;;2.29;100.00;99350.16;5011108;28;20037;-87
2023/01/09 05:37:23;;;;;;;140.27;37.45;;;4.00;99.90;;;2.32;100.00;99344.03;4994434;28;20022;-85
2023/01/09 05:39:49;;;;;;;123.38;38.30;;;3.90;99.90;;;2.32;100.00;99344.03;4994498;28;20077;-84
2023/01/09 05:42:15;;;;;;;107.57;33.70;;;4.00;99.90;;;2.34;100.00;99337.84;4991967;28;20048;-87
2023/01/09 05:44:40;;;;;;;103.20;31.15;;;4.00;99.90;;;2.38;100.00;99334.25;4989870;28;20097;-86
2023/01/09 05:47:06;;;;;;;86.60;26.10;;;4.00;99.90;;;2.35;100.00;99330.91;5006505;28;20063;-85
2023/01/09 05:49:32;;;;;;;89.40;26.35;;;4.00;99.90;;;2.32;100.00;99326.69;4986764;28;20486;-86
2023/01/09 05:51:58;;;;;;;109.43;33.10;;;4.00;99.90;;;2.35;100.00;99320.53;4987706;28;20040;-85
2023/01/09 05:54:24;;;;;;;134.93;38.83;;;4.00;99.90;;;2.43;100.00;99323.69;5004626;28;20108;-86
2023/01/09 05:56:52;;;;;;;166.20;39.92;;;4.00;99.90;;;2.42;100.00;99314.22;5003452;28;20038;-85
2023/01/09 05:59:18;;;;;;;116.70;36.47;;;4.10;99.90;;;2.42;100.00;99311.63;4989414;28;20026;-86
2023/01/09 06:01:44;;;;;;;130.55;37.10;;;4.10;99.90;;;2.44;100.00;99308.06;5005645;28;20116;-86
2023/01/09 06:04:10;;;;;;;139.13;39.67;;;4.10;99.90;;;2.52;100.00;99307.78;4988894;28;20117;-86
2023/01/09 06:06:36;;;;;;;133.95;38.20;;;4.10;99.90;;;2.49;100.00;99304.47;4988629;28;20024;-86
2023/01/09 06:09:02;;;;;;;121.32;38.15;;;4.20;99.90;;;2.45;100.00;99306.31;4986174;28;20055;-86
2023/01/09 06:11:33;;;;;;;130.35;37.78;;;4.10;99.90;;;2.45;100.00;99293.31;4989182;28;20030;-85
2023/01/09 06:13:58;;;;;;;141.38;41.05;;;4.10;99.90;;;2.51;100.00;99298.28;4998821;28;20018;-87
2023/01/09 06:16:24;;;;;;;116.28;29.80;;;4.20;99.90;;;2.39;100.00;99288.34;4989922;28;20505;-86
2023/01/09 06:18:50;;;;;;;129.55;40.42;;;4.20;99.90;;;2.48;100.00;99277.59;5005176;28;20030;-86
2023/01/09 06:21:16;;;;;;;139.95;40.17;;;4.20;99.90;;;2.50;100.00;99277.56;5011838;28;20117;-86
2023/01/09 06:23:42;;;;;;;116.85;39.25;;;4.10;99.90;;;2.47;100.00;99287.16;4985329;28;20791;-86
2023/01/09 06:26:13;;;;;;;157.82;43.17;;;4.10;99.90;;;2.55;100.00;99284.28;5005464;28;20033;-87
2023/01/09 06:28:39;;;;;;;124.13;40.08;;;4.20;99.90;;;2.56;100.00;99279.94;5006361;28;20033;-86
2023/01/09 06:31:05;;;;;;;108.75;34.53;;;4.20;99.90;;;2.46;100.00;99271.63;4991441;28;20051;-85
2023/01/09 06:33:31;;;;;;;158.93;42.63;;;4.10;99.90;;;2.49;100.00;99271.53;4995175;28;20033;-86
2023/01/09 06:35:57;;;;;;;123.05;41.78;;;4.10;99.90;;;2.45;100.00;99265.56;4985189;28;20033;-85
2023/01/09 06:38:32;;;;;;;105.90;31.50;;;4.10;99.90;;;2.37;100.00;99262.41;4985262;28;20449;-86
2023/01/09 06:41:00;;;;;;;117.43;36.88;;;4.10;99.90;;;2.43;100.00;99261.34;4992867;28;20401;-87
2023/01/09 06:43:26;;;;;;;111.32;33.97;;;4.10;99.90;;;2.47;100.00;99263.78;5005147;28;20030;-86
2023/01/09 06:45:57;;;;;;;118.28;40.22;;;4.20;99.90;;;2.48;100.00;99262.00;4982702;28;20041;-87
2023/01/09 06:48:26;;;;;;;115.65;41.50;;;4.20;99.90;;;2.55;100.00;99267.81;5006035;28;20021;-85
2023/01/09 06:50:53;;;;;;;101.10;39.20;;;4.10;99.90;;;2.45;100.00;99254.34;5007468;28;20064;-86
2023/01/09 06:53:24;;;;;;;113.80;38.55;;;4.10;99.90;;;2.49;100.00;99257.69;4986488;28;20025;-85
2023/01/09 06:55:50;;;;;;;102.45;39.03;;;4.20;99.90;;;2.54;100.00;99255.75;4990261;28;20034;-86
2023/01/09 06:58:19;;;;;;;82.82;31.95;;;4.20;99.90;;;2.49;100.00;99258.53;4988457;28;20029;-85
2023/01/09 07:00:45;;;;;;;92.00;36.80;;;4.20;99.90;;;2.55;100.00;99260.03;4995197;28;20033;-86
2023/01/09 07:03:21;;;;;;;;;;;;;;;;;;;;;
2023/01/09 07:05:50;;;;;;;95.05;38.95;;;4.30;99.90;;;2.65;100.00;99264.00;5008212;28;20026;-86
2023/01/09 07:08:20;;;;;;;94.53;38.08;;;4.30;99.90;;;2.72;100.00;99275.00;4993320;28;20046;-84
2023/01/09 07:10:46;;;;;;;100.00;40.10;;;4.40;99.90;;;2.77;100.00;99270.50;4990219;28;20023;-86
2023/01/09 07:13:12;;;;;;;44.97;18.98;;;4.40;99.90;;;2.70;100.00;99284.59;4987718;28;20145;-86
2023/01/09 07:15:40;;;;;;;97.35;41.20;;;4.40;99.90;;;2.79;100.00;99281.69;5003643;28;20030;-87
2023/01/09 07:18:14;;;;;;;82.43;34.40;;;4.50;99.90;;;2.84;100.00;99284.94;5005852;28;20026;-86
2023/01/09 07:20:40;;;;;;;96.20;40.60;;;4.50;99.90;;;2.89;100.00;99288.22;5006039;28;20388;-85
2023/01/09 07:23:22;;;;;;;99.55;38.88;;;4.50;99.90;;;2.88;100.00;99295.16;5004911;28;20032;-86
2023/01/09 07:25:50;;;;;;;97.07;39.03;;;4.60;99.90;;;2.92;100.00;99300.28;4996391;28;20029;-86
2023/01/09 07:28:23;;;;;;;109.32;40.90;;;;;;;2.95;100.00;99305.34;4994258;28;20088;-85
2023/01/09 07:30:52;;;;;;;104.05;42.22;;;4.60;99.90;;;2.92;100.00;99300.28;5007888;28;20026;-86
2023/01/09 07:33:18;;;;;;;103.22;41.90;;;4.60;99.90;;;2.93;100.00;99304.53;4994670;28;20669;-86
2023/01/09 07:35:51;;;;;;;98.15;43.13;;;4.60;99.90;;;2.92;100.00;99311.50;5007091;28;20022;-87
2023/01/09 07:38:17;;;;;;;105.18;42.25;;;4.60;99.90;;;2.91;100.00;99306.34;4991728;28;20071;-87
2023/01/09 07:40:43;;;;;;;107.68;42.85;;;4.60;99.90;;;2.92;100.00;99308.91;4992252;28;20029;-86
2023/01/09 07:43:09;;;;;;;100.32;42.33;;;4.60;99.90;;;2.92;100.00;99301.09;5006896;28;20459;-85
2023/01/09 07:45:44;;;;;;;110.57;43.72;;;4.60;99.90;;;2.91;100.00;99298.56;4994500;28;20029;-86
2023/01/09 07:48:10;;;;;;;100.95;41.83;;;4.60;99.90;;;2.92;100.00;99293.31;5012708;28;20021;-85
2023/01/09 07:50:36;;;;;;;104.18;42.88;;;4.60;99.90;;;3.00;100.00;99300.78;5001241;28;20132;-86
2023/01/09 07:53:02;;;;;;;95.57;41.67;;;4.60;99.90;;;3.01;100.00;99300.75;5010903;28;20038;-86
2023/01/09 07:55:30;;;;;;;98.47;38.70;;;4.60;99.90;;;2.92;100.00;99298.50;4999268;28;20030;-86
2023/01/09 07:58:03;;;;;;;92.38;38.58;;;4.60;99.90;;;2.90;100.00;99299.47;4996602;28;20029;-87
2023/01/09 08:00:29;;;;;;;101.35;41.70;;;4.60;99.90;;;2.97;100.00;99301.78;4995964;28;20056;-86
2023/01/09 08:03:00;;;;;;;80.30;32.88;;;4.60;99.90;;;2.93;100.00;99289.78;4997972;28;20026;-86
2023/01/09 08:05:26;;;;;;;110.13;43.22;;;;;;;3.02;100.00;99291.19;5013492;28;20075;-87
2023/01/09 08:07:52;;;;;;;96.28;41.28;;;4.60;99.90;;;3.00;100.00;99291.25;5011031;28;20129;-86
2023/01/09 08:10:21;;;;;;;103.25;42.40;;;4.70;99.90;;;3.02;100.00;99299.84;4997961;28;20057;-87
2023/01/09 08:12:55;;;;;;;90.82;40.83;;;4.60;99.90;;;2.97;100.00;99288.75;4998296;28;20035;-85
2023/01/09 08:15:38;;;;;;;;;;;;;;;;;;;;;
2023/01/09 08:18:04;;;;;;;102.45;42.17;;;4.70;99.90;;;3.12;100.00;99289.09;5015011;28;20101;-87
2023/01/09 08:20:30;;;;;;;101.88;42.22;;;;;;;3.08;100.00;99288.34;4997567;28;20106;-86
2023/01/09 08:23:00;;;;;;;105.28;42.35;;;;;;;3.06;100.00;99298.81;5026273;28;20030;-87
2023/01/09 08:25:26;;;;;;;93.15;41.58;;;4.70;99.90;;;3.04;100.00;99287.63;5015172;28;20092;-86
2023/01/09 08:27:55;;;;;;;98.95;40.97;;;4.70;99.90;;;3.11;100.00;99292.59;4999111;28;20038;-86
2023/01/09 08:30:21;;;;;;;107.25;43.67;;;;;;;3.13;100.00;99295.97;5014423;28;20518;-86
2023/01/09 08:32:54;;;;;;;97.00;41.10;;;4.70;99.90;;;3.12;100.00;99291.69;5023655;28;20040;-86
2023/01/09 08:35:23;;;;;;;110.90;43.08;;;4.80;99.90;;;3.18;100.00;99291.47;4998244;28;20049;-86
2023/01/09 08:37:59;;;;;;;;;;;;;;;;;;;;;
2023/01/09 08:40:25;;;;;;;100.45;41.40;;;4.80;99.90;;;3.25;100.00;99298.09;5015949;28;20092;-86
2023/01/09 08:47:04;;;;;;;99.45;42.42;;;4.90;99.90;;;3.32;100.00;99299.53;5014139;28;20107;-86
2023/01/09 08:48:50;;;;;;;96.10;41.17;;;4.90;99.90;;;3.27;100.00;99302.34;5018501;28;20033;-87
2023/01/09 08:51:22;;;;;;;103.60;43.08;;;4.90;99.90;;;3.27;100.00;99294.53;5004409;28;20080;-86
2023/01/09 08:54:14;;;;;;;99.53;42.25;;;;;;;3.33;100.00;99303.03;5016895;28;20036;-86
2023/01/09 08:56:42;;;;;;;111.18;43.22;;;4.90;99.90;;;3.35;100.00;99295.97;5012943;28;20026;-87
2023/01/09 09:01:59;;;;;;;101.75;42.63;;;5.00;99.90;;;3.44;100.00;99296.47;5015453;28;20033;-86
2023/01/09 09:04:25;;;;;;;101.80;43.83;;;5.00;99.90;;;3.46;100.00;99288.59;5017634;28;20044;-86
2023/01/09 09:06:54;;;;;;;107.28;43.35;;;5.00;99.90;;;3.53;100.00;99294.41;4998798;28;20018;-87
2023/01/09 09:09:30;;;;;;;102.90;44.45;;;;;;;3.53;100.00;99289.19;5015054;28;20753;-87
2023/01/09 09:11:56;;;;;;;;;;;5.10;99.90;;;3.46;100.00;99286.00;5001392;28;20041;-85
2023/01/09 09:17:28;;;;;;;;;;;;;;;;;;;;;
2023/01/09 09:19:54;;;;;;;105.85;43.10;;;5.10;99.90;;;3.58;100.00;99282.03;5014363;28;20106;-86
2023/01/09 09:22:30;;;;;;;107.25;42.90;;;5.20;99.90;;;3.64;100.00;99281.78;5009211;28;20030;-86
2023/01/09 09:24:59;;;;;;;;;;;5.20;99.90;;;3.55;100.00;99282.19;5004075;28;20042;-87
2023/01/09 09:27:25;;;;;;;107.32;43.08;;;5.20;99.90;;;3.60;100.00;99283.66;4998795;28;19913;-86
2023/01/09 09:29:59;;;;;;;99.03;41.75;;;5.20;99.90;;;3.69;100.00;99287.66;4997361;28;20130;-86
2023/01/09 09:32:56;;;;;;;104.60;43.67;;;;;;;3.76;100.00;99285.63;5000525;28;20051;-85
2023/01/09 09:35:35;;;;;;;127.05;47.55;;;5.30;99.90;;;3.76;100.00;99283.91;5008811;28;20586;-86
2023/01/09 09:38:12;;;;;;;103.32;44.15;;;5.30;99.90;;;3.71;100.00;99298.84;5009375;28;20037;-86
2023/01/09 09:44:46;;;;;;;107.43;43.75;;;;;;;3.65;100.00;99310.38;5019828;28;20041;-86
2023/01/09 09:47:51;;;;;;;127.05;47.08;;;5.30;99.90;;;3.71;100.00;99314.47;5010334;28;20048;-86
2023/01/09 09:51:09;;;;;;;124.95;46.35;;;5.40;99.90;;;3.78;100.00;99313.31;5006726;28;20508;-86
2023/01/09 09:54:04;;;;;;;140.50;49.88;;;5.40;99.90;;;3.83;100.00;99310.53;4998852;28;20042;-87
2023/01/09 09:57:01;;;;;;;131.13;47.85;;;5.40;99.90;;;3.88;100.00;99313.78;4987954;28;20074;-86
2023/01/09 09:59:35;;;;;;;146.90;49.78;;;5.50;99.90;;;3.98;100.00;99320.28;4989003;28;20073;-85
2023/01/09 10:02:49;;;;;;;127.35;48.30;;;5.60;99.90;;;4.03;100.00;99318.34;5009431;28;20128;-86
2023/01/09 10:05:37;;;;;;;128.13;48.35;;;5.60;99.90;;;4.08;100.00;99313.78;5019638;28;20037;-87
2023/01/09 10:09:02;;;;;;;133.95;49.17;;;5.70;99.90;;;4.13;100.00;99308.38;5023870;28;20056;-86
2023/01/09 10:12:04;;;;;;;124.97;49.05;;;;;;;4.18;100.00;99308.19;4979061;28;20082;-86
2023/01/09 10:14:37;;;;;;;117.20;48.08;;;5.80;99.90;;;4.23;100.00;99301.88;4988207;28;20068;-86
2023/01/09 10:17:59;;;;;;;121.20;46.97;;;5.80;99.90;;;4.23;100.00;99306.22;4990093;28;20062;-86
2023/01/09 10:20:55;;;;;;;116.75;47.47;;;5.80;99.90;;;4.35;100.00;99310.06;4993898;28;20049;-85
2023/01/09 10:23:57;;;;;;;114.35;45.08;;;5.90;99.90;;;4.40;100.00;99302.88;5024528;28;20103;-87
2023/01/09 10:26:49;;;;;;;130.93;47.38;;;6.00;99.90;;;4.46;100.00;99303.44;4991312;28;20042;-85
2023/01/09 10:29:59;;;;;;;109.32;44.22;;;6.00;99.90;;;4.61;100.00;99304.53;5019695;28;20049;-85
2023/01/09 10:32:27;;;;;;;104.28;43.30;;;6.10;99.90;;;4.65;100.00;99303.50;4986103;28;20034;-86
2023/01/09 10:35:42;;;;;;;113.60;44.63;;;6.20;99.90;;;4.75;100.00;99305.66;5012600;28;20127;-86
2023/01/09 10:38:22;;;;;;;117.70;45.88;;;6.20;99.90;;;4.77;100.00;99302.06;5009890;28;20025;-86
2023/01/09 10:41:02;;;;;;;108.53;44.08;;;;;;;4.82;100.00;99304.50;4990347;28;20076;-86
2023/01/09 10:43:50;;;;;;;113.40;43.83;;;6.30;99.90;;;4.88;100.00;99309.41;5006998;28;20509;-85
2023/01/09 10:46:36;;;;;;;94.45;41.10;;;6.40;99.90;;;4.82;100.00;99315.78;5027623;28;20033;-86
2023/01/09 10:49:17;;;;;;;;;;;6.40;99.90;;;4.83;100.00;99306.19;5009083;28;20314;-87
2023/01/09 10:51:51;;;;;;;85.57;37.08;;;6.40;99.90;;;4.85;100.00;99305.19;4994472;28;19913;-86
2023/01/09 10:54:31;;;;;;;87.80;39.00;;;6.40;99.90;;;4.87;100.00;99305.97;5011937;28;20044;-86
2023/01/09 10:57:45;;;;;;;89.40;39.15;;;6.40;99.90;;;4.89;100.00;99313.72;4990774;28;20026;-86
2023/01/09 11:00:23;;;;;;;88.13;38.88;;;6.40;99.90;;;4.91;100.00;99317.09;5011439;28;20423;-84
2023/01/09 11:03:02;;;;;;;85.72;37.85;;;6.50;99.90;;;4.94;100.00;99320.41;4991025;28;20057;-86
2023/01/09 11:05:35;;;;;;;86.22;37.40;;;6.50;99.90;;;5.03;100.00;99318.28;4997711;28;20124;-86